Time;durP1;ratioP1;P1;durP2;ratioP2;P2;SDS_P1;SDS_P2;PMS_P1;PMS_P2;Temp;Humidity;BMP_temperature;BMP_pressure;BME280_temperature;BME280_humidity;BME280_pressure;Samples;Min_cycle;Max_cycle;Signal;HPM_P1;HPM_P2
2021/08/31 00:01:15;;;;;;;21.00;16.63;;;;;;;15.40;100.00;102247.63;5168494;28;20042;-67
2021/08/31 00:03:46;;;;;;;22.83;15.73;;;;;;;15.44;100.00;102251.69;5164569;28;20437;-67
2021/08/31 00:06:17;;;;;;;22.83;16.65;;;;;;;15.44;100.00;102254.31;5161439;28;20110;-67
2021/08/31 00:08:49;;;;;;;20.92;16.25;;;;;;;15.44;100.00;102259.59;5162345;28;20031;-67
2021/08/31 00:11:21;;;;;;;19.10;16.67;;;;;;;15.44;100.00;102256.97;5168449;28;20117;-67
2021/08/31 00:13:52;;;;;;;19.48;16.17;;;;;;;15.44;100.00;102260.44;5172452;28;20027;-67
2021/08/31 00:16:24;;;;;;;23.60;16.75;;;;;;;15.47;100.00;102265.47;5176674;28;20477;-67
2021/08/31 00:18:55;;;;;;;20.90;17.23;;;;;;;15.47;100.00;102262.00;5167516;28;20020;-67
2021/08/31 00:21:26;;;;;;;24.52;17.85;;;;;;;15.50;100.00;102259.09;5169739;28;20027;-67
2021/08/31 00:23:58;;;;;;;19.55;16.77;;;;;;;15.51;100.00;102260.78;5171375;28;20014;-67
2021/08/31 00:26:29;;;;;;;22.55;17.23;;;;;;;15.51;100.00;102268.69;5173050;28;20034;-67
2021/08/31 00:29:00;;;;;;;20.55;16.83;;;;;;;15.53;100.00;102258.81;5161416;28;20039;-67
2021/08/31 00:31:31;;;;;;;20.33;17.25;;;;;;;15.47;100.00;102262.84;5168232;28;20536;-67
2021/08/31 00:34:03;;;;;;;20.33;17.58;;;;;;;15.50;100.00;102270.50;5178075;28;20544;-67
2021/08/31 00:36:34;;;;;;;22.13;17.13;;;;;;;15.53;100.00;102270.25;5169959;28;20045;-67
2021/08/31 00:39:05;;;;;;;22.38;17.65;;;;;;;15.55;100.00;102264.84;5177227;28;20516;-67
2021/08/31 00:41:37;;;;;;;18.92;16.75;;;;;;;15.54;100.00;102273.72;5173010;28;20023;-67
2021/08/31 00:44:21;;;;;;;20.92;16.75;;;;;;;15.61;100.00;102269.63;5168902;28;20062;-67
2021/08/31 00:46:54;;;;;;;19.33;17.23;;;;;;;15.52;100.00;102279.13;5162590;28;20111;-67
2021/08/31 00:49:26;;;;;;;21.67;17.63;;;;;;;15.49;100.00;102266.19;5172143;28;20039;-67
2021/08/31 00:51:58;;;;;;;20.58;16.60;;;;;;;15.53;100.00;102277.31;5175243;28;20027;-67
2021/08/31 00:54:30;;;;;;;23.20;17.70;;;;;;;15.54;100.00;102273.72;5174252;28;20098;-67
2021/08/31 00:57:03;;;;;;;22.63;17.88;;;;;;;15.53;100.00;102272.91;5176775;28;20499;-67
2021/08/31 00:59:35;;;;;;;;;;;;;;;15.81;100.00;102275.91;5169950;28;20027;-67
2021/08/31 01:02:06;;;;;;;23.37;16.30;;;;;;;15.54;100.00;102276.38;5171816;28;19921;-67
2021/08/31 01:04:37;;;;;;;23.10;17.83;;;;;;;15.54;100.00;102279.00;5162529;28;20036;-67
2021/08/31 01:07:09;;;;;;;20.67;18.48;;;;;;;15.55;100.00;102280.69;5167768;28;20054;-67
2021/08/31 01:09:42;;;;;;;21.25;17.98;;;;;;;15.53;100.00;102280.81;5175250;28;20035;-67
2021/08/31 01:12:14;;;;;;;20.98;16.67;;;;;;;15.45;100.00;102282.41;5166009;28;20105;-67
2021/08/31 01:14:47;;;;;;;23.17;18.17;;;;;;;15.45;100.00;102280.59;5176107;28;20118;-67
2021/08/31 01:17:18;;;;;;;20.90;18.60;;;;;;;15.41;100.00;102275.69;5163062;28;20037;-67
2021/08/31 01:19:50;;;;;;;21.67;17.30;;;;;;;15.47;100.00;102285.78;5169885;28;20035;-67
2021/08/31 01:22:21;;;;;;;23.83;18.77;;;;;;;15.43;100.00;102281.72;5174216;28;20026;-67
2021/08/31 01:24:57;;;;;;;23.52;18.63;;;;;;;15.48;100.00;102277.72;5176350;28;20073;-67
2021/08/31 01:27:29;;;;;;;21.60;18.05;;;;;;;15.47;100.00;102283.13;5166492;28;20473;-67
2021/08/31 01:30:00;;;;;;;20.88;17.90;;;;;;;15.48;100.00;102275.06;5164165;28;20030;-67
2021/08/31 01:32:32;;;;;;;24.40;17.73;;;;;;;15.51;100.00;102279.25;5165020;28;20072;-67
2021/08/31 01:35:03;;;;;;;19.92;17.70;;;;;;;15.55;100.00;102288.59;5174341;28;20081;-67
2021/08/31 01:37:35;;;;;;;23.08;18.17;;;;;;;15.56;100.00;102277.91;5174949;28;20041;-67
2021/08/31 01:40:06;;;;;;;20.85;18.35;;;;;;;15.56;100.00;102287.63;5177154;28;20066;-67
2021/08/31 01:42:38;;;;;;;24.23;19.52;;;;;;;15.55;100.00;102289.44;5171686;28;20031;-67
2021/08/31 01:45:09;;;;;;;22.67;18.65;;;;;;;15.51;100.00;102287.19;5167392;28;20473;-67
2021/08/31 01:47:40;;;;;;;24.05;19.27;;;;;;;15.55;100.00;102296.53;5163118;28;20051;-67
2021/08/31 01:50:12;;;;;;;21.70;18.60;;;;;;;15.54;100.00;102292.22;5174633;28;20033;-67
2021/08/31 01:52:43;;;;;;;20.70;18.05;;;;;;;15.57;100.00;102300.72;5175617;28;20022;-67
2021/08/31 01:55:15;;;;;;;27.35;20.35;;;;;;;15.57;100.00;102306.03;5168599;28;20397;-67
2021/08/31 01:57:46;;;;;;;29.45;19.58;;;;;;;15.58;100.00;102299.75;5161909;28;20057;-67
2021/08/31 02:00:17;;;;;;;23.13;19.48;;;;;;;15.57;100.00;102294.63;5171492;28;20090;-67
2021/08/31 02:02:48;;;;;;;23.70;19.63;;;;;;;15.57;100.00;102298.09;5168770;28;20022;-67
2021/08/31 02:05:20;;;;;;;24.73;19.20;;;;;;;15.56;100.00;102298.19;5170277;28;20034;-67
2021/08/31 02:07:51;;;;;;;23.65;19.42;;;;;;;15.56;100.00;102300.84;5167688;28;20037;-67
2021/08/31 02:10:22;;;;;;;21.50;18.85;;;;;;;15.56;100.00;102303.47;5175777;28;20511;-67
2021/08/31 02:12:54;;;;;;;25.48;19.23;;;;;;;15.55;100.00;102299.19;5171540;28;20027;-67
2021/08/31 02:15:25;;;;;;;22.35;19.42;;;;;;;15.58;100.00;102306.84;5164390;28;20034;-67
2021/08/31 02:17:56;;;;;;;23.20;19.63;;;;;;;15.55;100.00;102307.09;5175269;28;20219;-67
2021/08/31 02:20:28;;;;;;;22.83;18.52;;;;;;;15.55;100.00;102307.94;5175844;28;20038;-67
2021/08/31 02:22:59;;;;;;;22.23;19.58;;;;;;;15.56;100.00;102306.13;5169346;28;20119;-67
2021/08/31 02:25:31;;;;;;;21.63;18.85;;;;;;;15.55;100.00;102304.47;5171708;28;20532;-67
2021/08/31 02:28:02;;;;;;;24.90;19.35;;;;;;;15.59;100.00;102305.88;5166794;28;20094;-67
2021/08/31 02:30:34;;;;;;;24.23;19.95;;;;;;;15.54;100.00;102310.72;5169328;28;20061;-67
2021/08/31 02:33:05;;;;;;;25.90;21.55;;;;;;;15.52;100.00;102310.81;5174871;28;20027;-67
2021/08/31 02:35:36;;;;;;;24.75;20.05;;;;;;;15.52;100.00;102308.19;5170675;28;20015;-67
2021/08/31 02:38:08;;;;;;;25.55;21.00;;;;;;;15.49;100.00;102307.59;5174891;28;20022;-67
2021/08/31 02:40:39;;;;;;;24.23;20.35;;;;;;;15.47;100.00;102297.16;5162542;28;20033;-67
2021/08/31 02:43:10;;;;;;;28.38;22.63;;;;;;;15.48;100.00;102306.75;5174069;28;20031;-67
2021/08/31 02:45:41;;;;;;;24.75;21.52;;;;;;;15.47;100.00;102312.19;5173648;28;20256;-67
2021/08/31 02:48:13;;;;;;;24.92;20.90;;;;;;;15.46;100.00;102311.34;5174162;28;20043;-67
2021/08/31 02:50:44;;;;;;;26.77;21.57;;;;;;;15.50;100.00;102304.00;5175631;28;20019;-67
2021/08/31 02:53:15;;;;;;;26.15;21.67;;;;;;;15.45;100.00;102311.44;5173063;28;20286;-67
2021/08/31 02:55:47;;;;;;;32.15;24.05;;;;;;;15.45;100.00;102306.16;5170524;28;20035;-67
2021/08/31 02:58:18;;;;;;;26.83;21.50;;;;;;;15.45;100.00;102311.44;5163664;28;20082;-67
2021/08/31 03:01:28;;;;;;;28.27;21.52;;;;;;;15.45;100.00;102307.00;5172355;28;20026;-67
2021/08/31 03:03:56;;;;;;;26.00;20.98;;;;;;;15.45;100.00;102311.44;5169382;28;20412;-67
2021/08/31 03:06:29;;;;;;;26.10;20.77;;;;;;;15.47;100.00;102310.38;5161040;28;20028;-67
2021/08/31 03:09:00;;;;;;;24.45;21.83;;;;;;;15.44;100.00;102317.72;5169155;28;20484;-67
2021/08/31 03:11:32;;;;;;;25.17;21.75;;;;;;;15.35;100.00;102303.47;5161148;28;20102;-67
2021/08/31 03:14:04;;;;;;;25.38;22.33;;;;;;;15.42;100.00;102309.06;5170534;28;20576;-67
2021/08/31 03:16:35;;;;;;;24.08;21.52;;;;;;;15.44;100.00;102307.16;5163850;28;20031;-67
2021/08/31 03:19:06;;;;;;;26.27;21.50;;;;;;;15.44;100.00;102313.25;5172247;28;20099;-67
2021/08/31 03:21:37;;;;;;;25.08;21.45;;;;;;;15.43;100.00;102308.13;5163451;28;20477;-67
2021/08/31 03:24:09;;;;;;;25.52;21.95;;;;;;;15.44;100.00;102317.72;5169390;28;20089;-67
2021/08/31 03:26:40;;;;;;;23.63;20.88;;;;;;;15.45;100.00;102312.28;5171943;28;20019;-67
2021/08/31 03:29:12;;;;;;;26.02;21.65;;;;;;;15.41;100.00;102316.16;5169953;28;20181;-67
2021/08/31 03:31:43;;;;;;;27.10;21.88;;;;;;;15.39;100.00;102309.34;5163939;28;20030;-67
2021/08/31 03:34:15;;;;;;;26.25;21.98;;;;;;;15.43;100.00;102319.50;5172621;28;20102;-67
2021/08/31 03:36:46;;;;;;;26.83;22.52;;;;;;;15.40;100.00;102316.28;5167916;28;20033;-67
2021/08/31 03:39:17;;;;;;;24.35;21.35;;;;;;;15.44;100.00;102315.91;5168472;28;20151;-67
2021/08/31 03:41:49;;;;;;;25.67;21.95;;;;;;;15.45;100.00;102320.22;5171829;28;20022;-67
2021/08/31 03:44:20;;;;;;;24.95;22.05;;;;;;;15.48;100.00;102319.13;5173168;28;20035;-67
2021/08/31 03:46:51;;;;;;;25.95;21.48;;;;;;;15.46;100.00;102315.78;5167698;28;20510;-67
2021/08/31 03:49:22;;;;;;;26.00;22.52;;;;;;;15.44;100.00;102305.34;5169676;28;20062;-67
2021/08/31 03:51:55;;;;;;;27.27;22.13;;;;;;;15.42;100.00;102323.13;5168123;28;20098;-67
2021/08/31 03:54:26;;;;;;;24.92;21.75;;;;;;;15.42;100.00;102320.50;5172684;28;20105;-67
2021/08/31 03:56:57;;;;;;;25.77;22.80;;;;;;;15.41;100.00;102317.97;5169308;28;20035;-67
2021/08/31 03:59:29;;;;;;;27.33;20.38;;;;;;;15.43;100.00;102319.50;5169518;28;20069;-67
2021/08/31 04:02:00;;;;;;;28.52;22.05;;;;;;;15.43;100.00;102316.88;5167325;28;20031;-67
2021/08/31 04:04:31;;;;;;;24.48;21.73;;;;;;;15.38;100.00;102318.19;5172137;28;20038;-67
2021/08/31 04:07:02;;;;;;;25.90;22.93;;;;;;;15.39;100.00;102323.38;5174579;28;20029;-67
2021/08/31 04:09:34;;;;;;;25.52;22.30;;;;;;;15.40;100.00;102329.50;5171733;28;20302;-67
2021/08/31 04:12:06;;;;;;;24.60;21.40;;;;;;;15.36;100.00;102323.63;5172789;28;20396;-67
2021/08/31 04:14:37;;;;;;;24.25;21.67;;;;;;;15.35;100.00;102326.41;5172329;28;20035;-67
2021/08/31 04:17:08;;;;;;;25.15;20.73;;;;;;;15.36;100.00;102328.06;5170563;28;20182;-67
2021/08/31 04:19:40;;;;;;;24.75;21.73;;;;;;;15.31;100.00;102334.56;5165885;28;20038;-67
2021/08/31 04:22:11;;;;;;;26.27;22.00;;;;;;;15.32;100.00;102343.31;5179017;28;20058;-67
2021/08/31 04:24:42;;;;;;;25.55;21.65;;;;;;;15.30;100.00;102342.59;5176492;28;20180;-67
2021/08/31 04:27:14;;;;;;;25.70;22.10;;;;;;;15.31;100.00;102345.13;5165680;28;20054;-67
2021/08/31 04:29:45;;;;;;;22.42;19.98;;;;;;;15.29;100.00;102348.84;5166769;28;20718;-67
2021/08/31 04:32:16;;;;;;;24.55;21.95;;;;;;;15.25;100.00;102342.97;5170731;28;20035;-67
2021/08/31 04:34:51;;;;;;;24.23;21.58;;;;;;;15.29;100.00;102354.97;5172982;28;20034;-67
2021/08/31 04:37:22;;;;;;;25.10;21.50;;;;;;;15.25;100.00;102360.63;5174978;28;20022;-67
2021/08/31 04:39:54;;;;;;;23.70;21.20;;;;;;;15.30;100.00;102366.34;5176141;28;20023;-67
2021/08/31 04:42:25;;;;;;;24.58;21.90;;;;;;;15.25;100.00;102353.53;5166332;28;20031;-67
2021/08/31 04:44:57;;;;;;;26.75;22.75;;;;;;;15.24;100.00;102362.41;5167864;28;20089;-67
2021/08/31 04:47:28;;;;;;;27.33;22.38;;;;;;;15.28;100.00;102363.00;5176461;28;20055;-67
2021/08/31 04:49:59;;;;;;;23.35;20.83;;;;;;;15.23;100.00;102365.19;5170381;28;20030;-67
2021/08/31 04:52:30;;;;;;;24.75;20.73;;;;;;;15.19;100.00;102375.16;5163639;28;20385;-67
2021/08/31 04:55:02;;;;;;;27.00;21.45;;;;;;;15.20;100.00;102363.63;5178277;28;20469;-67
2021/08/31 04:57:33;;;;;;;24.65;20.75;;;;;;;15.22;100.00;102374.88;5175585;28;20472;-67
2021/08/31 05:00:06;;;;;;;25.52;21.52;;;;;;;15.19;100.00;102377.81;5177989;28;20082;-67
2021/08/31 05:02:37;;;;;;;23.97;20.80;;;;;;;15.20;100.00;102381.28;5176700;28;20476;-67
2021/08/31 05:05:09;;;;;;;24.95;20.48;;;;;;;15.19;100.00;102380.44;5168908;28;20065;-67
2021/08/31 05:07:40;;;;;;;27.30;19.90;;;;;;;15.19;100.00;102390.13;5171750;28;20266;-67
2021/08/31 05:10:11;;;;;;;22.10;19.85;;;;;;;15.20;100.00;102392.69;5166035;28;20041;-67
2021/08/31 05:12:42;;;;;;;25.05;21.35;;;;;;;15.21;100.00;102394.34;5166271;28;20015;-67
2021/08/31 05:15:14;;;;;;;24.48;20.00;;;;;;;15.25;100.00;102395.78;5171335;28;20300;-68
2021/08/31 05:17:45;;;;;;;23.90;20.52;;;;;;;15.25;100.00;102401.06;5170134;28;20480;-68
2021/08/31 05:20:18;;;;;;;26.10;20.20;;;;;;;15.27;100.00;102395.66;5178263;28;20492;-68
2021/08/31 05:22:50;;;;;;;23.73;19.37;;;;;;;15.32;100.00;102401.41;5172372;28;20086;-68
2021/08/31 05:25:21;;;;;;;22.87;19.40;;;;;;;15.31;100.00;102403.22;5168861;28;20302;-68
2021/08/31 05:27:53;;;;;;;24.02;20.15;;;;;;;15.33;100.00;102403.91;5173114;28;20030;-67
2021/08/31 05:30:25;;;;;;;22.27;19.58;;;;;;;15.39;100.00;102404.41;5169592;28;20046;-68
2021/08/31 05:32:56;;;;;;;21.90;19.13;;;;;;;15.42;100.00;102398.84;5164783;28;20400;-67
2021/08/31 05:35:27;;;;;;;25.33;19.95;;;;;;;15.39;100.00;102407.88;5173874;28;20019;-68
2021/08/31 05:37:59;;;;;;;20.88;18.65;;;;;;;15.43;100.00;102406.66;5166692;28;20037;-69
2021/08/31 05:40:30;;;;;;;25.37;20.53;;;;;;;15.47;100.00;102407.25;5171902;28;20053;-68
2021/08/31 05:43:02;;;;;;;24.15;19.83;;;;;;;15.47;100.00;102407.25;5166420;28;20294;-68
2021/08/31 05:45:33;;;;;;;23.85;19.52;;;;;;;15.50;100.00;102405.22;5166437;28;20031;-68
2021/08/31 05:48:04;;;;;;;21.35;18.88;;;;;;;15.51;100.00;102409.53;5174264;28;20481;-68
2021/08/31 05:50:35;;;;;;;21.30;18.80;;;;;;;15.57;100.00;102413.50;5174187;28;20030;-68
2021/08/31 05:53:07;;;;;;;24.85;20.23;;;;;;;15.58;100.00;102407.25;5171506;28;20038;-68
2021/08/31 05:55:38;;;;;;;27.92;19.55;;;;;;;15.64;100.00;102419.94;5170691;28;20651;-68
2021/08/31 05:58:09;;;;;;;23.70;18.88;;;;;;;15.67;100.00;102418.88;5171964;28;20105;-68
2021/08/31 06:00:40;;;;;;;23.20;18.23;;;;;;;15.68;100.00;102416.13;5164634;28;20401;-68
2021/08/31 06:03:12;;;;;;;23.63;18.50;;;;;;;15.72;100.00;102416.69;5170419;28;20432;-68
2021/08/31 06:05:43;;;;;;;19.60;17.60;;;;;;;15.72;100.00;102419.34;5172948;28;20054;-68
2021/08/31 06:08:15;;;;;;;21.83;18.75;;;;;;;15.73;100.00;102419.22;5158259;28;20481;-68
2021/08/31 06:10:46;;;;;;;21.02;18.25;;;;;;;15.76;100.00;102418.16;5159005;28;20070;-68
2021/08/31 06:13:17;;;;;;;22.25;17.80;;;;;;;15.76;100.00;102424.28;5158860;28;20035;-68
2021/08/31 06:15:49;;;;;;;21.88;19.05;;;;;;;15.82;100.00;102426.38;5160756;28;20026;-68
2021/08/31 06:18:20;;;;;;;20.63;18.42;;;;;;;15.85;100.00;102427.94;5159038;28;20358;-68
2021/08/31 06:20:51;;;;;;;23.23;18.17;;;;;;;15.90;100.00;102428.41;5162834;28;20895;-68
2021/08/31 06:23:23;;;;;;;22.13;16.90;;;;;;;15.93;100.00;102432.59;5160281;28;20511;-68
2021/08/31 06:25:54;;;;;;;23.75;17.35;;;;;;;15.97;100.00;102428.75;5164368;28;20030;-68
2021/08/31 06:28:26;;;;;;;25.13;18.00;;;;;;;15.99;100.00;102434.75;5162280;28;20513;-68
2021/08/31 06:30:57;;;;;;;23.27;17.50;;;;;;;15.98;100.00;102433.06;5151949;28;20031;-68
2021/08/31 06:33:28;;;;;;;23.15;18.85;;;;;;;15.97;100.00;102440.16;5155692;28;20033;-68
2021/08/31 06:36:00;;;;;;;21.08;15.95;;;;;;;15.98;100.00;102435.69;5164525;28;20385;-68
2021/08/31 06:38:32;;;;;;;22.75;17.42;;;;;;;16.00;100.00;102441.72;5166835;28;20061;-68
2021/08/31 06:41:04;;;;;;;24.27;15.75;;;;;;;16.04;100.00;102435.22;5171873;28;20038;-68
2021/08/31 06:43:36;;;;;;;23.85;15.80;;;;;;;16.08;100.00;102433.16;5168035;28;20434;-68
2021/08/31 06:46:07;;;;;;;21.13;16.60;;;;;;;16.13;100.00;102445.00;5162162;28;20114;-68
2021/08/31 06:48:41;;;;;;;24.58;15.70;;;;;;;16.14;100.00;102428.19;5161940;28;20051;-68
2021/08/31 06:51:14;;;;;;;23.60;15.77;;;;;;;16.21;100.00;102445.22;5160769;28;20032;-68
2021/08/31 06:53:45;;;;;;;23.25;15.57;;;;;;;16.28;100.00;102443.72;5156045;28;20027;-68
2021/08/31 06:56:16;;;;;;;22.20;14.88;;;;;;;16.33;100.00;102447.78;5158105;28;20019;-68
2021/08/31 06:58:48;;;;;;;21.23;15.10;;;;;;;16.29;100.00;102439.31;5164253;28;20069;-68
2021/08/31 07:01:19;;;;;;;19.45;12.98;;;;;;;16.41;100.00;102451.50;5159163;28;20023;-68
2021/08/31 07:03:51;;;;;;;16.30;13.07;;;;;;;16.43;100.00;102443.41;5158542;28;20360;-68
2021/08/31 07:06:22;;;;;;;17.70;13.55;;;;;;;16.51;100.00;102448.88;5177368;28;20023;-68
2021/08/31 07:08:53;;;;;;;16.38;12.27;;;;;;;16.54;100.00;102446.00;5176691;28;20129;-68
2021/08/31 07:11:25;;;;;;;17.45;12.07;;;;;;;16.61;100.00;102459.56;5175522;28;20543;-68
2021/08/31 07:13:57;;;;;;;16.13;11.57;;;;;;;16.66;100.00;102460.81;5178267;28;20145;-68
2021/08/31 07:16:28;;;;;;;17.73;11.52;;;;;;;16.70;100.00;102461.41;5178125;28;20029;-68
2021/08/31 07:18:59;;;;;;;16.92;11.77;;;;;;;16.80;100.00;102467.63;5178315;28;20473;-68
2021/08/31 07:21:30;;;;;;;16.80;10.18;;;;;;;16.85;100.00;102467.22;5174544;28;20829;-68
2021/08/31 07:24:02;;;;;;;15.93;10.60;;;;;;;16.92;100.00;102457.78;5178525;28;20396;-68
2021/08/31 07:26:33;;;;;;;15.80;9.93;;;;;;;16.91;100.00;102461.41;5178522;28;20069;-68
2021/08/31 07:29:04;;;;;;;11.68;8.48;;;;;;;16.98;100.00;102465.22;5170446;28;20408;-68
2021/08/31 07:31:36;;;;;;;16.40;10.02;;;;;;;17.02;100.00;102463.97;5159164;28;20390;-68
2021/08/31 07:34:07;;;;;;;17.70;9.75;;;;;;;17.01;100.00;102463.16;5167074;28;20027;-68
2021/08/31 07:36:38;;;;;;;16.85;8.25;;;;;;;17.10;100.00;102466.78;5166099;28;20054;-68
2021/08/31 07:39:10;;;;;;;18.27;8.93;;;;;;;17.17;100.00;102473.25;5164336;28;21840;-68
2021/08/31 07:41:41;;;;;;;13.48;8.70;;;;;;;17.21;100.00;102474.66;5161642;28;20413;-68
2021/08/31 07:44:12;;;;;;;13.73;9.60;;;;;;;17.26;100.00;102482.19;5165801;28;20396;-68
2021/08/31 07:46:46;;;;;;;14.73;8.57;;;;;;;17.31;100.00;102481.78;5170839;28;20031;-69
2021/08/31 07:49:19;;;;;;;15.52;8.85;;;;;;;17.25;100.00;102476.06;5174008;28;20030;-68
2021/08/31 07:51:51;;;;;;;15.43;8.68;;;;;;;17.32;100.00;102480.81;5170258;28;20034;-68
2021/08/31 07:54:22;;;;;;;15.23;8.02;;;;;;;17.34;100.00;102484.16;5175635;28;20030;-69
2021/08/31 07:56:53;;;;;;;14.30;8.27;;;;;;;17.38;100.00;102477.63;5170607;28;20059;-68
2021/08/31 07:59:25;;;;;;;13.47;7.77;;;;;;;17.38;100.00;102474.97;5167960;28;20038;-68
2021/08/31 08:01:56;;;;;;;15.60;8.37;;;;;;;17.40;100.00;102483.63;5168534;28;20031;-68
2021/08/31 08:04:30;;;;;;;19.52;7.70;;;;;;;17.40;100.00;102481.81;5174520;28;20292;-69
2021/08/31 08:07:01;;;;;;;12.77;7.80;;;;;;;17.40;100.00;102478.34;5168751;28;20109;-69
2021/08/31 08:09:33;;;;;;;13.60;7.63;;;;;;;17.52;100.00;102474.59;5175465;28;20058;-69
2021/08/31 08:12:05;;;;;;;14.23;7.13;;;;;;;17.57;100.00;102487.44;5168809;28;20042;-68
2021/08/31 08:14:36;;;;;;;13.70;7.53;;;;;;;17.59;100.00;102491.63;5171805;28;20027;-69
2021/08/31 08:17:08;;;;;;;14.73;7.68;;;;;;;17.68;100.00;102490.81;5171873;28;20548;-68
2021/08/31 08:19:39;;;;;;;10.63;7.53;;;;;;;17.77;100.00;102488.34;5173252;28;20033;-68
2021/08/31 08:22:11;;;;;;;13.53;7.27;;;;;;;17.82;100.00;102481.66;5171699;28;20195;-68
2021/08/31 08:24:43;;;;;;;10.25;7.07;;;;;;;17.94;100.00;102485.03;5169732;28;20041;-68
2021/08/31 08:27:14;;;;;;;11.73;6.70;;;;;;;17.89;100.00;102484.59;5174350;28;20421;-68
2021/08/31 08:29:46;;;;;;;13.10;7.57;;;;;;;17.82;100.00;102486.97;5166087;28;20019;-68
2021/08/31 08:32:17;;;;;;;10.73;6.47;;;;;;;17.90;100.00;102488.94;5162890;28;20081;-68
2021/08/31 08:34:48;;;;;;;15.30;7.93;;;;;;;17.97;100.00;102492.72;5165255;28;20393;-68
2021/08/31 08:37:20;;;;;;;12.82;6.75;;;;;;;18.00;100.00;102495.09;5166989;28;20036;-68
2021/08/31 08:39:51;;;;;;;11.63;6.50;;;;;;;18.07;100.00;102496.22;5165385;28;20031;-68
2021/08/31 08:42:23;;;;;;;11.50;6.28;;;;;;;18.15;100.00;102491.03;5162332;28;20035;-68
2021/08/31 08:44:54;;;;;;;12.35;6.18;;;;;;;18.30;100.00;102501.25;5165111;28;20027;-68
2021/08/31 08:47:25;;;;;;;12.87;7.33;;;;;;;18.26;100.00;102498.03;5171351;28;20051;-68
2021/08/31 08:49:57;;;;;;;10.07;6.83;;;;;;;18.41;100.00;102498.41;5165187;28;20479;-68
2021/08/31 08:52:28;;;;;;;12.37;6.87;;;;;;;18.46;100.00;102489.06;5169536;28;20062;-68
2021/08/31 08:54:59;;;;;;;11.73;6.93;;;;;;;18.49;100.00;102498.56;5165490;28;20030;-69
2021/08/31 08:57:31;;;;;;;14.63;6.87;;;;;;;18.50;100.00;102500.22;5169229;28;20035;-68
2021/08/31 09:00:04;;;;;;;11.45;6.43;;;;;;;18.59;100.00;102507.34;5158894;28;20023;-68
2021/08/31 09:02:41;;;;;;;15.93;7.05;;;;;;;18.66;100.00;102505.78;5163785;28;20031;-68
2021/08/31 09:05:28;;;;;;;11.43;6.35;;;;;;;18.55;100.00;102516.56;5159620;28;20023;-68
2021/08/31 09:08:06;;;;;;;10.85;6.80;;;;;;;18.65;100.00;102514.75;5165656;28;20034;-69
2021/08/31 09:10:41;;;;;;;11.15;7.03;;;;;;;18.63;100.00;102510.53;5164669;28;20050;-68
2021/08/31 09:13:20;;;;;;;11.40;6.72;;;;;;;18.74;100.00;102518.38;5169033;28;20038;-68
2021/08/31 09:15:51;;;;;;;13.13;6.88;;;;;;;18.86;100.00;102514.56;5169557;28;20027;-68
2021/08/31 09:18:25;;;;;;;12.53;7.43;;;;;;;18.84;100.00;102510.41;5163912;28;20438;-68
2021/08/31 09:21:01;;;;;;;13.65;7.00;;;;;;;18.98;100.00;102509.94;5159295;28;20528;-68
2021/08/31 09:23:35;;;;;;;15.52;7.72;;;;;;;19.01;100.00;102509.63;5165394;28;20027;-68
2021/08/31 09:26:11;;;;;;;12.60;7.18;;;;;;;19.00;100.00;102518.59;5170061;28;20031;-68
2021/08/31 09:28:42;;;;;;;11.07;7.10;;;;;;;18.96;100.00;102518.03;5165083;28;20434;-68
2021/08/31 09:31:19;;;;;;;13.77;7.70;;;;;;;19.12;100.00;102516.59;5169721;28;20061;-68
2021/08/31 09:33:54;;;;;;;11.85;7.07;;;;;;;19.14;100.00;102512.00;5174454;28;20037;-68
2021/08/31 09:36:25;;;;;;;9.35;6.57;;;;;;;19.23;100.00;102508.44;5176391;28;20029;-68
2021/08/31 09:39:00;;;;;;;15.03;7.77;;;;;;;19.33;100.00;102508.41;5168515;28;20038;-68
2021/08/31 09:41:41;;;;;;;9.48;6.78;;;;;;;19.48;100.00;102512.25;5170574;28;20038;-68
2021/08/31 09:44:18;;;;;;;12.40;7.32;;;;;;;19.52;100.00;102510.97;5161758;28;20034;-68
2021/08/31 09:47:00;;;;;;;12.48;6.65;;;;;;;19.48;100.00;102514.06;5165964;28;20035;-68
2021/08/31 09:49:39;;;;;;;10.85;6.80;;;;;;;19.63;100.00;102512.63;5172496;28;20030;-68
2021/08/31 09:52:15;;;;;;;13.00;7.03;;;;;;;19.79;100.00;102520.78;5168820;28;20084;-68
2021/08/31 09:54:48;;;;;;;9.82;6.03;;;;;;;19.97;100.00;102512.00;5170510;28;20061;-68
2021/08/31 09:57:35;;;;;;;11.75;6.72;;;;;;;20.17;100.00;102511.66;5169877;28;20033;-69
2021/08/31 10:00:15;;;;;;;11.63;6.57;;;;;;;19.98;100.00;102513.66;5168806;28;20448;-69
2021/08/31 10:02:48;;;;;;;12.80;6.47;;;;;;;20.04;100.00;102516.56;5169055;28;20023;-68
2021/08/31 10:05:19;;;;;;;8.07;5.95;;;;;;;20.08;100.00;102515.25;5168261;28;20027;-68
2021/08/31 10:07:52;;;;;;;8.73;5.70;;;;;;;20.21;100.00;102519.34;5171785;28;20035;-69
2021/08/31 10:10:24;;;;;;;10.63;6.40;;;;;;;20.10;100.00;102515.09;5159466;28;20073;-68
2021/08/31 10:12:57;;;;;;;;;;;;;;;20.52;100.00;102517.97;5170547;28;20074;-69
2021/08/31 10:15:30;;;;;;;8.40;6.07;;;;;;;20.32;100.00;102514.63;5161957;28;19925;-69
2021/08/31 10:18:01;;;;;;;;;;;;;;;20.68;100.00;102511.91;5160889;28;20027;-69
2021/08/31 10:20:33;;;;;;;14.23;5.97;;;;;;;20.45;100.00;102513.38;5167395;28;19925;-69
2021/08/31 10:23:04;;;;;;;13.17;6.30;;;;;;;20.46;100.00;102509.75;5170304;28;20041;-69
2021/08/31 10:25:36;;;;;;;8.60;4.97;;;;;;;20.42;100.00;102525.22;5160429;28;20026;-69
2021/08/31 10:28:28;;;;;;;10.73;5.77;;;;;;;20.52;100.00;102517.97;5162407;28;20049;-69
2021/08/31 10:31:00;;;;;;;10.43;6.32;;;;;;;20.23;100.00;102520.88;5166342;28;20457;-69
2021/08/31 10:33:37;;;;;;;11.80;5.83;;;;;;;20.21;100.00;102520.19;5162948;28;20106;-69
2021/08/31 10:36:10;;;;;;;10.23;6.18;;;;;;;20.25;100.00;102518.88;5163378;28;20058;-69
2021/08/31 10:38:50;;;;;;;10.43;6.25;;;;;;;20.34;100.00;102519.78;5161949;28;20019;-69
2021/08/31 10:41:42;;;;;;;9.65;5.53;;;;;;;20.34;100.00;102519.78;5166480;28;20058;-69
2021/08/31 10:44:42;;;;;;;12.37;6.73;;;;;;;20.38;100.00;102522.00;5169983;28;20058;-69
2021/08/31 10:47:16;;;;;;;8.63;5.95;;;;;;;20.13;100.00;102520.94;5173558;28;21278;-69
2021/08/31 10:49:56;;;;;;;13.63;6.80;;;;;;;20.12;100.00;102527.25;5169276;28;20381;-69
2021/08/31 10:52:52;;;;;;;8.82;5.80;;;;;;;20.14;100.00;102527.94;5169485;28;20081;-69
2021/08/31 10:55:24;;;;;;;11.27;6.38;;;;;;;20.05;100.00;102528.84;5163818;28;20026;-69
2021/08/31 10:57:57;;;;;;;11.10;7.10;;;;;;;20.09;100.00;102532.06;5169668;28;20048;-69
2021/08/31 11:00:28;;;;;;;10.25;6.88;;;;;;;20.03;100.00;102532.66;5168080;28;20031;-70
2021/08/31 11:03:01;;;;;;;12.63;7.50;;;;;;;20.07;100.00;102532.19;5166472;28;20037;-69
2021/08/31 11:05:35;;;;;;;13.95;6.85;;;;;;;20.10;100.00;102526.56;5162573;28;20039;-69
2021/08/31 11:08:06;;;;;;;10.48;6.97;;;;;;;20.20;100.00;102534.50;5174333;28;20031;-70
2021/08/31 11:10:42;;;;;;;14.07;8.40;;;;;;;20.35;100.00;102535.63;5169482;28;20042;-69
2021/08/31 11:13:22;;;;;;;9.55;7.13;;;;;;;20.48;100.00;102535.22;5167273;28;20023;-70
2021/08/31 11:15:56;;;;;;;15.13;7.82;;;;;;;20.47;100.00;102536.22;5167901;28;20110;-71
2021/08/31 11:18:34;;;;;;;11.55;6.38;;;;;;;20.55;100.00;102532.81;5170856;28;20030;-70
2021/08/31 11:21:05;;;;;;;17.20;7.25;;;;;;;20.38;100.00;102531.78;5164073;28;20037;-70
2021/08/31 11:23:36;;;;;;;12.47;7.47;;;;;;;20.31;100.00;102534.25;5170715;28;20142;-70
2021/08/31 11:26:08;;;;;;;12.60;7.40;;;;;;;20.21;100.00;102533.50;5172047;28;20035;-70
2021/08/31 11:28:39;;;;;;;12.37;7.87;;;;;;;20.25;100.00;102528.69;5169518;28;20126;-70